sensor_id;sensor_type;location;lat;lon;timestamp;P1;durP1;ratioP1;P2;durP2;ratioP2
6109;SDS011;3085;49.444;11.054;2022-09-09T00:01:49;1.60;;;1.10;;
6109;SDS011;3085;49.444;11.054;2022-09-09T00:04:23;5.73;;;1.40;;
6109;SDS011;3085;49.444;11.054;2022-09-09T00:06:59;6.90;;;1.10;;
6109;SDS011;3085;49.444;11.054;2022-09-09T00:09:32;2.87;;;1.30;;
6109;SDS011;3085;49.444;11.054;2022-09-09T00:12:10;1.90;;;1.17;;
6109;SDS011;3085;49.444;11.054;2022-09-09T00:14:40;2.13;;;1.10;;
6109;SDS011;3085;49.444;11.054;2022-09-09T00:17:17;2.77;;;1.27;;
6109;SDS011;3085;49.444;11.054;2022-09-09T00:20:05;4.97;;;1.17;;
6109;SDS011;3085;49.444;11.054;2022-09-09T00:22:39;3.80;;;1.37;;
6109;SDS011;3085;49.444;11.054;2022-09-09T00:25:14;2.10;;;1.40;;
6109;SDS011;3085;49.444;11.054;2022-09-09T00:27:48;1.60;;;1.27;;
6109;SDS011;3085;49.444;11.054;2022-09-09T00:30:17;1.40;;;1.20;;
6109;SDS011;3085;49.444;11.054;2022-09-09T00:32:47;2.20;;;1.50;;
6109;SDS011;3085;49.444;11.054;2022-09-09T00:35:16;2.80;;;1.40;;
6109;SDS011;3085;49.444;11.054;2022-09-09T00:37:50;1.70;;;1.20;;
6109;SDS011;3085;49.444;11.054;2022-09-09T00:40:24;1.53;;;1.27;;
6109;SDS011;3085;49.444;11.054;2022-09-09T00:43:01;3.50;;;1.40;;
6109;SDS011;3085;49.444;11.054;2022-09-09T00:45:47;3.50;;;1.37;;
6109;SDS011;3085;49.444;11.054;2022-09-09T00:48:34;3.50;;;1.10;;
6109;SDS011;3085;49.444;11.054;2022-09-09T00:51:14;1.77;;;1.30;;
6109;SDS011;3085;49.444;11.054;2022-09-09T00:53:56;1.97;;;1.40;;
6109;SDS011;3085;49.444;11.054;2022-09-09T00:56:44;3.33;;;1.20;;
6109;SDS011;3085;49.444;11.054;2022-09-09T00:59:19;1.20;;;1.03;;
6109;SDS011;3085;49.444;11.054;2022-09-09T01:01:53;3.33;;;1.33;;
6109;SDS011;3085;49.444;11.054;2022-09-09T01:04:21;2.17;;;1.10;;
6109;SDS011;3085;49.444;11.054;2022-09-09T01:06:57;1.60;;;1.20;;
6109;SDS011;3085;49.444;11.054;2022-09-09T01:09:30;2.30;;;1.13;;
6109;SDS011;3085;49.444;11.054;2022-09-09T01:12:07;2.63;;;1.20;;
6109;SDS011;3085;49.444;11.054;2022-09-09T01:14:41;1.50;;;0.93;;
6109;SDS011;3085;49.444;11.054;2022-09-09T01:17:14;1.60;;;1.47;;
6109;SDS011;3085;49.444;11.054;2022-09-09T01:19:47;1.37;;;1.00;;
6109;SDS011;3085;49.444;11.054;2022-09-09T01:22:25;1.60;;;1.40;;
6109;SDS011;3085;49.444;11.054;2022-09-09T01:25:20;1.77;;;1.30;;
6109;SDS011;3085;49.444;11.054;2022-09-09T01:27:55;4.50;;;1.17;;
6109;SDS011;3085;49.444;11.054;2022-09-09T01:30:23;1.97;;;1.20;;
6109;SDS011;3085;49.444;11.054;2022-09-09T01:32:53;3.00;;;1.37;;
6109;SDS011;3085;49.444;11.054;2022-09-09T01:35:27;2.33;;;1.90;;
6109;SDS011;3085;49.444;11.054;2022-09-09T01:37:58;2.00;;;1.43;;
6109;SDS011;3085;49.444;11.054;2022-09-09T01:40:26;2.27;;;1.40;;
6109;SDS011;3085;49.444;11.054;2022-09-09T01:42:53;1.63;;;1.30;;
6109;SDS011;3085;49.444;11.054;2022-09-09T01:45:21;1.80;;;1.60;;
6109;SDS011;3085;49.444;11.054;2022-09-09T01:47:50;2.80;;;1.27;;
6109;SDS011;3085;49.444;11.054;2022-09-09T01:50:18;2.20;;;1.20;;
6109;SDS011;3085;49.444;11.054;2022-09-09T01:52:46;2.63;;;1.57;;
6109;SDS011;3085;49.444;11.054;2022-09-09T01:55:16;1.50;;;1.17;;
6109;SDS011;3085;49.444;11.054;2022-09-09T01:57:52;1.93;;;1.13;;
6109;SDS011;3085;49.444;11.054;2022-09-09T02:00:30;1.43;;;1.20;;
6109;SDS011;3085;49.444;11.054;2022-09-09T02:03:00;3.43;;;1.47;;
6109;SDS011;3085;49.444;11.054;2022-09-09T02:05:35;3.37;;;1.57;;
6109;SDS011;3085;49.444;11.054;2022-09-09T02:08:06;1.43;;;1.00;;
6109;SDS011;3085;49.444;11.054;2022-09-09T02:10:36;1.57;;;1.07;;
6109;SDS011;3085;49.444;11.054;2022-09-09T02:13:11;9.70;;;2.60;;
6109;SDS011;3085;49.444;11.054;2022-09-09T02:15:41;1.83;;;1.40;;
6109;SDS011;3085;49.444;11.054;2022-09-09T02:18:11;2.80;;;1.53;;
6109;SDS011;3085;49.444;11.054;2022-09-09T02:20:41;3.07;;;1.47;;
6109;SDS011;3085;49.444;11.054;2022-09-09T02:23:11;1.70;;;1.37;;
6109;SDS011;3085;49.444;11.054;2022-09-09T02:25:38;2.93;;;1.80;;
6109;SDS011;3085;49.444;11.054;2022-09-09T02:28:10;1.77;;;1.30;;
6109;SDS011;3085;49.444;11.054;2022-09-09T02:30:39;1.67;;;1.20;;
6109;SDS011;3085;49.444;11.054;2022-09-09T02:33:09;8.80;;;1.37;;
6109;SDS011;3085;49.444;11.054;2022-09-09T02:35:38;3.00;;;1.50;;
6109;SDS011;3085;49.444;11.054;2022-09-09T02:38:07;4.53;;;1.30;;
6109;SDS011;3085;49.444;11.054;2022-09-09T02:40:36;2.20;;;1.50;;
6109;SDS011;3085;49.444;11.054;2022-09-09T02:43:03;1.20;;;1.10;;
6109;SDS011;3085;49.444;11.054;2022-09-09T02:45:34;2.47;;;0.97;;
6109;SDS011;3085;49.444;11.054;2022-09-09T02:48:09;1.20;;;1.00;;
6109;SDS011;3085;49.444;11.054;2022-09-09T02:50:41;2.60;;;1.37;;
6109;SDS011;3085;49.444;11.054;2022-09-09T02:53:22;3.63;;;1.50;;
6109;SDS011;3085;49.444;11.054;2022-09-09T02:55:54;1.90;;;1.40;;
6109;SDS011;3085;49.444;11.054;2022-09-09T02:58:24;2.53;;;1.60;;
6109;SDS011;3085;49.444;11.054;2022-09-09T03:00:53;5.77;;;2.30;;
6109;SDS011;3085;49.444;11.054;2022-09-09T03:03:22;2.87;;;1.90;;
6109;SDS011;3085;49.444;11.054;2022-09-09T03:05:49;2.57;;;1.60;;
6109;SDS011;3085;49.444;11.054;2022-09-09T03:08:16;5.50;;;1.63;;
6109;SDS011;3085;49.444;11.054;2022-09-09T03:10:43;1.80;;;1.33;;
6109;SDS011;3085;49.444;11.054;2022-09-09T03:13:10;3.60;;;1.53;;
6109;SDS011;3085;49.444;11.054;2022-09-09T03:15:38;2.37;;;1.40;;
6109;SDS011;3085;49.444;11.054;2022-09-09T03:18:06;8.97;;;1.60;;
6109;SDS011;3085;49.444;11.054;2022-09-09T03:20:33;2.20;;;1.17;;
6109;SDS011;3085;49.444;11.054;2022-09-09T03:23:00;1.87;;;1.43;;
6109;SDS011;3085;49.444;11.054;2022-09-09T03:25:27;1.60;;;1.17;;
6109;SDS011;3085;49.444;11.054;2022-09-09T03:27:55;3.00;;;1.40;;
6109;SDS011;3085;49.444;11.054;2022-09-09T03:30:22;3.00;;;1.40;;
6109;SDS011;3085;49.444;11.054;2022-09-09T03:32:50;16.10;;;1.50;;
6109;SDS011;3085;49.444;11.054;2022-09-09T03:35:19;1.93;;;1.17;;
6109;SDS011;3085;49.444;11.054;2022-09-09T03:37:46;2.60;;;1.27;;
6109;SDS011;3085;49.444;11.054;2022-09-09T03:40:13;1.80;;;1.10;;
6109;SDS011;3085;49.444;11.054;2022-09-09T03:42:40;8.53;;;1.30;;
6109;SDS011;3085;49.444;11.054;2022-09-09T03:45:19;3.30;;;1.37;;
6109;SDS011;3085;49.444;11.054;2022-09-09T03:47:46;1.93;;;1.13;;
6109;SDS011;3085;49.444;11.054;2022-09-09T03:50:13;3.17;;;1.53;;
6109;SDS011;3085;49.444;11.054;2022-09-09T03:52:41;1.80;;;1.20;;
6109;SDS011;3085;49.444;11.054;2022-09-09T03:55:09;1.83;;;1.33;;
6109;SDS011;3085;49.444;11.054;2022-09-09T03:57:35;9.43;;;1.93;;
6109;SDS011;3085;49.444;11.054;2022-09-09T04:00:03;3.97;;;2.13;;
6109;SDS011;3085;49.444;11.054;2022-09-09T04:02:30;4.70;;;1.53;;
6109;SDS011;3085;49.444;11.054;2022-09-09T04:04:57;2.50;;;1.80;;
6109;SDS011;3085;49.444;11.054;2022-09-09T04:07:25;2.40;;;1.47;;
6109;SDS011;3085;49.444;11.054;2022-09-09T04:09:56;2.10;;;1.30;;
6109;SDS011;3085;49.444;11.054;2022-09-09T04:12:23;2.93;;;1.77;;
6109;SDS011;3085;49.444;11.054;2022-09-09T04:14:49;2.40;;;1.43;;
6109;SDS011;3085;49.444;11.054;2022-09-09T04:17:16;3.43;;;2.10;;
6109;SDS011;3085;49.444;11.054;2022-09-09T04:19:43;7.03;;;1.67;;
6109;SDS011;3085;49.444;11.054;2022-09-09T04:22:10;2.53;;;1.40;;
6109;SDS011;3085;49.444;11.054;2022-09-09T04:24:37;3.73;;;2.07;;
6109;SDS011;3085;49.444;11.054;2022-09-09T04:27:05;6.50;;;2.40;;
6109;SDS011;3085;49.444;11.054;2022-09-09T04:29:32;3.20;;;1.80;;
6109;SDS011;3085;49.444;11.054;2022-09-09T04:31:59;4.37;;;2.67;;
6109;SDS011;3085;49.444;11.054;2022-09-09T04:34:26;2.97;;;1.83;;
6109;SDS011;3085;49.444;11.054;2022-09-09T04:36:53;3.47;;;1.83;;
6109;SDS011;3085;49.444;11.054;2022-09-09T04:39:21;4.17;;;1.80;;
6109;SDS011;3085;49.444;11.054;2022-09-09T04:41:48;5.97;;;2.00;;
6109;SDS011;3085;49.444;11.054;2022-09-09T04:44:16;3.20;;;1.93;;
6109;SDS011;3085;49.444;11.054;2022-09-09T04:46:43;2.40;;;1.57;;
6109;SDS011;3085;49.444;11.054;2022-09-09T04:49:10;3.50;;;2.03;;
6109;SDS011;3085;49.444;11.054;2022-09-09T04:51:36;6.03;;;1.70;;
6109;SDS011;3085;49.444;11.054;2022-09-09T04:54:04;2.73;;;1.70;;
6109;SDS011;3085;49.444;11.054;2022-09-09T04:56:30;2.17;;;1.77;;
6109;SDS011;3085;49.444;11.054;2022-09-09T04:58:57;4.70;;;1.90;;
6109;SDS011;3085;49.444;11.054;2022-09-09T05:01:25;3.40;;;1.60;;
6109;SDS011;3085;49.444;11.054;2022-09-09T05:03:52;7.90;;;1.33;;
6109;SDS011;3085;49.444;11.054;2022-09-09T05:06:20;6.63;;;2.00;;
6109;SDS011;3085;49.444;11.054;2022-09-09T05:08:47;2.93;;;1.57;;
6109;SDS011;3085;49.444;11.054;2022-09-09T05:11:15;2.27;;;1.50;;
6109;SDS011;3085;49.444;11.054;2022-09-09T05:13:43;6.30;;;2.27;;
6109;SDS011;3085;49.444;11.054;2022-09-09T05:16:10;4.03;;;1.80;;
6109;SDS011;3085;49.444;11.054;2022-09-09T05:18:39;5.20;;;1.80;;
6109;SDS011;3085;49.444;11.054;2022-09-09T05:21:07;6.50;;;1.90;;
6109;SDS011;3085;49.444;11.054;2022-09-09T05:23:35;2.20;;;1.33;;
6109;SDS011;3085;49.444;11.054;2022-09-09T05:26:03;3.40;;;1.67;;
6109;SDS011;3085;49.444;11.054;2022-09-09T05:28:30;1.53;;;1.37;;
6109;SDS011;3085;49.444;11.054;2022-09-09T05:31:00;5.77;;;2.00;;
6109;SDS011;3085;49.444;11.054;2022-09-09T05:33:30;3.57;;;1.53;;
6109;SDS011;3085;49.444;11.054;2022-09-09T05:36:00;2.33;;;1.50;;
6109;SDS011;3085;49.444;11.054;2022-09-09T05:38:28;5.10;;;2.00;;
6109;SDS011;3085;49.444;11.054;2022-09-09T05:40:55;3.00;;;1.53;;
6109;SDS011;3085;49.444;11.054;2022-09-09T05:43:23;2.60;;;1.57;;
6109;SDS011;3085;49.444;11.054;2022-09-09T05:45:58;5.80;;;1.80;;
6109;SDS011;3085;49.444;11.054;2022-09-09T05:48:27;1.80;;;1.50;;
6109;SDS011;3085;49.444;11.054;2022-09-09T05:50:55;3.00;;;1.30;;
6109;SDS011;3085;49.444;11.054;2022-09-09T05:53:25;3.63;;;1.77;;
6109;SDS011;3085;49.444;11.054;2022-09-09T05:55:59;3.30;;;1.70;;
6109;SDS011;3085;49.444;11.054;2022-09-09T05:58:28;5.33;;;1.77;;
6109;SDS011;3085;49.444;11.054;2022-09-09T06:01:00;2.47;;;1.73;;
6109;SDS011;3085;49.444;11.054;2022-09-09T06:03:31;2.60;;;1.40;;
6109;SDS011;3085;49.444;11.054;2022-09-09T06:05:59;3.07;;;1.90;;
6109;SDS011;3085;49.444;11.054;2022-09-09T06:08:28;5.53;;;1.20;;
6109;SDS011;3085;49.444;11.054;2022-09-09T06:11:00;5.13;;;1.83;;
6109;SDS011;3085;49.444;11.054;2022-09-09T06:13:29;4.63;;;2.07;;
6109;SDS011;3085;49.444;11.054;2022-09-09T06:15:56;3.60;;;1.87;;
6109;SDS011;3085;49.444;11.054;2022-09-09T06:18:24;4.73;;;1.77;;
6109;SDS011;3085;49.444;11.054;2022-09-09T06:20:54;2.97;;;1.43;;
6109;SDS011;3085;49.444;11.054;2022-09-09T06:23:22;2.97;;;1.67;;
6109;SDS011;3085;49.444;11.054;2022-09-09T06:25:51;7.47;;;2.50;;
6109;SDS011;3085;49.444;11.054;2022-09-09T06:28:25;4.00;;;2.20;;
6109;SDS011;3085;49.444;11.054;2022-09-09T06:30:56;7.30;;;2.10;;
6109;SDS011;3085;49.444;11.054;2022-09-09T06:33:24;18.93;;;2.70;;
6109;SDS011;3085;49.444;11.054;2022-09-09T06:35:51;4.97;;;1.73;;
6109;SDS011;3085;49.444;11.054;2022-09-09T06:38:18;5.53;;;1.87;;
6109;SDS011;3085;49.444;11.054;2022-09-09T06:40:51;7.57;;;1.40;;
6109;SDS011;3085;49.444;11.054;2022-09-09T06:43:19;2.20;;;1.43;;
6109;SDS011;3085;49.444;11.054;2022-09-09T06:45:52;3.50;;;1.60;;
6109;SDS011;3085;49.444;11.054;2022-09-09T06:48:20;8.03;;;2.87;;
6109;SDS011;3085;49.444;11.054;2022-09-09T06:50:47;2.93;;;1.80;;
6109;SDS011;3085;49.444;11.054;2022-09-09T06:53:15;6.13;;;2.10;;
6109;SDS011;3085;49.444;11.054;2022-09-09T06:55:44;4.33;;;1.90;;
6109;SDS011;3085;49.444;11.054;2022-09-09T06:58:12;5.00;;;2.40;;
6109;SDS011;3085;49.444;11.054;2022-09-09T07:00:39;11.77;;;5.67;;
6109;SDS011;3085;49.444;11.054;2022-09-09T07:03:06;6.40;;;3.50;;
6109;SDS011;3085;49.444;11.054;2022-09-09T07:05:33;10.20;;;2.30;;
6109;SDS011;3085;49.444;11.054;2022-09-09T07:08:00;10.50;;;2.30;;
6109;SDS011;3085;49.444;11.054;2022-09-09T07:10:27;5.20;;;1.70;;
6109;SDS011;3085;49.444;11.054;2022-09-09T07:12:54;10.73;;;1.60;;
6109;SDS011;3085;49.444;11.054;2022-09-09T07:15:22;1.80;;;1.30;;
6109;SDS011;3085;49.444;11.054;2022-09-09T07:17:49;5.23;;;2.00;;
6109;SDS011;3085;49.444;11.054;2022-09-09T07:20:18;5.43;;;2.30;;
6109;SDS011;3085;49.444;11.054;2022-09-09T07:22:45;4.53;;;2.13;;
6109;SDS011;3085;49.444;11.054;2022-09-09T07:25:12;7.10;;;2.00;;
6109;SDS011;3085;49.444;11.054;2022-09-09T07:27:42;1.70;;;1.30;;
6109;SDS011;3085;49.444;11.054;2022-09-09T07:30:09;2.70;;;1.60;;
6109;SDS011;3085;49.444;11.054;2022-09-09T07:32:38;3.03;;;1.83;;
6109;SDS011;3085;49.444;11.054;2022-09-09T07:35:05;2.53;;;1.20;;
6109;SDS011;3085;49.444;11.054;2022-09-09T07:37:35;4.23;;;1.50;;
6109;SDS011;3085;49.444;11.054;2022-09-09T07:40:02;2.07;;;1.47;;
6109;SDS011;3085;49.444;11.054;2022-09-09T07:42:30;3.50;;;1.47;;
6109;SDS011;3085;49.444;11.054;2022-09-09T07:44:57;4.03;;;1.53;;
6109;SDS011;3085;49.444;11.054;2022-09-09T07:47:24;6.73;;;2.17;;
6109;SDS011;3085;49.444;11.054;2022-09-09T07:49:52;4.03;;;1.73;;
6109;SDS011;3085;49.444;11.054;2022-09-09T07:52:19;2.50;;;1.63;;
6109;SDS011;3085;49.444;11.054;2022-09-09T07:54:46;5.53;;;2.00;;
6109;SDS011;3085;49.444;11.054;2022-09-09T07:57:13;5.30;;;2.40;;
6109;SDS011;3085;49.444;11.054;2022-09-09T07:59:40;3.37;;;1.40;;
6109;SDS011;3085;49.444;11.054;2022-09-09T08:02:08;4.17;;;1.73;;
6109;SDS011;3085;49.444;11.054;2022-09-09T08:04:36;8.43;;;3.00;;
6109;SDS011;3085;49.444;11.054;2022-09-09T08:07:04;7.80;;;1.90;;
6109;SDS011;3085;49.444;11.054;2022-09-09T08:09:31;7.80;;;1.97;;
6109;SDS011;3085;49.444;11.054;2022-09-09T08:11:58;5.03;;;2.17;;
6109;SDS011;3085;49.444;11.054;2022-09-09T08:14:28;2.13;;;1.40;;
6109;SDS011;3085;49.444;11.054;2022-09-09T08:16:55;3.70;;;2.43;;
6109;SDS011;3085;49.444;11.054;2022-09-09T08:19:23;3.50;;;1.33;;
6109;SDS011;3085;49.444;11.054;2022-09-09T08:21:54;5.47;;;1.67;;
6109;SDS011;3085;49.444;11.054;2022-09-09T08:24:22;3.90;;;1.70;;
6109;SDS011;3085;49.444;11.054;2022-09-09T08:26:49;7.10;;;1.60;;
6109;SDS011;3085;49.444;11.054;2022-09-09T08:29:16;4.03;;;1.23;;
6109;SDS011;3085;49.444;11.054;2022-09-09T08:31:44;2.60;;;1.30;;
6109;SDS011;3085;49.444;11.054;2022-09-09T08:34:12;3.00;;;0.97;;
6109;SDS011;3085;49.444;11.054;2022-09-09T08:36:40;2.80;;;1.43;;
6109;SDS011;3085;49.444;11.054;2022-09-09T08:39:09;9.47;;;1.10;;
6109;SDS011;3085;49.444;11.054;2022-09-09T08:44:42;2.40;;;1.00;;
6109;SDS011;3085;49.444;11.054;2022-09-09T08:47:18;4.07;;;1.17;;
6109;SDS011;3085;49.444;11.054;2022-09-09T08:49:55;2.57;;;1.10;;
6109;SDS011;3085;49.444;11.054;2022-09-09T08:52:37;1.40;;;1.00;;
6109;SDS011;3085;49.444;11.054;2022-09-09T08:55:15;2.37;;;0.90;;
6109;SDS011;3085;49.444;11.054;2022-09-09T08:57:54;1.67;;;0.90;;
6109;SDS011;3085;49.444;11.054;2022-09-09T09:00:23;2.20;;;0.93;;
6109;SDS011;3085;49.444;11.054;2022-09-09T09:03:02;5.07;;;1.07;;
6109;SDS011;3085;49.444;11.054;2022-09-09T09:05:36;3.17;;;1.37;;
6109;SDS011;3085;49.444;11.054;2022-09-09T09:08:11;1.83;;;1.00;;
6109;SDS011;3085;49.444;11.054;2022-09-09T09:10:49;3.40;;;1.20;;
6109;SDS011;3085;49.444;11.054;2022-09-09T09:13:20;1.63;;;1.07;;
6109;SDS011;3085;49.444;11.054;2022-09-09T09:15:53;2.37;;;0.93;;
6109;SDS011;3085;49.444;11.054;2022-09-09T09:18:24;1.40;;;0.80;;
6109;SDS011;3085;49.444;11.054;2022-09-09T09:20:54;1.70;;;1.00;;
6109;SDS011;3085;49.444;11.054;2022-09-09T09:23:32;2.03;;;0.90;;
6109;SDS011;3085;49.444;11.054;2022-09-09T09:26:07;1.97;;;1.27;;
6109;SDS011;3085;49.444;11.054;2022-09-09T09:28:38;2.30;;;0.70;;
6109;SDS011;3085;49.444;11.054;2022-09-09T09:31:07;1.20;;;0.83;;
6109;SDS011;3085;49.444;11.054;2022-09-09T09:33:38;1.53;;;1.00;;
6109;SDS011;3085;49.444;11.054;2022-09-09T09:36:12;2.03;;;0.80;;
6109;SDS011;3085;49.444;11.054;2022-09-09T09:38:40;1.63;;;0.70;;
6109;SDS011;3085;49.444;11.054;2022-09-09T09:41:28;2.50;;;1.00;;
6109;SDS011;3085;49.444;11.054;2022-09-09T09:43:57;2.63;;;0.83;;
6109;SDS011;3085;49.444;11.054;2022-09-09T09:46:25;1.73;;;0.80;;
6109;SDS011;3085;49.444;11.054;2022-09-09T09:48:56;5.63;;;0.97;;
6109;SDS011;3085;49.444;11.054;2022-09-09T09:51:25;8.80;;;0.93;;
6109;SDS011;3085;49.444;11.054;2022-09-09T09:53:53;1.97;;;0.87;;
6109;SDS011;3085;49.444;11.054;2022-09-09T09:56:30;2.73;;;0.83;;
6109;SDS011;3085;49.444;11.054;2022-09-09T09:58:59;1.30;;;1.00;;
6109;SDS011;3085;49.444;11.054;2022-09-09T10:01:27;3.37;;;0.83;;
6109;SDS011;3085;49.444;11.054;2022-09-09T10:04:01;1.60;;;0.80;;
6109;SDS011;3085;49.444;11.054;2022-09-09T10:06:53;1.20;;;0.60;;
6109;SDS011;3085;49.444;11.054;2022-09-09T10:09:21;4.20;;;1.07;;
6109;SDS011;3085;49.444;11.054;2022-09-09T10:11:52;1.83;;;1.13;;
6109;SDS011;3085;49.444;11.054;2022-09-09T10:14:28;1.80;;;0.93;;
6109;SDS011;3085;49.444;11.054;2022-09-09T10:17:06;4.23;;;1.10;;
6109;SDS011;3085;49.444;11.054;2022-09-09T10:19:43;2.10;;;0.97;;
6109;SDS011;3085;49.444;11.054;2022-09-09T10:22:23;1.50;;;0.80;;
6109;SDS011;3085;49.444;11.054;2022-09-09T10:28:01;2.40;;;0.90;;
6109;SDS011;3085;49.444;11.054;2022-09-09T10:30:47;6.00;;;1.77;;
6109;SDS011;3085;49.444;11.054;2022-09-09T10:33:26;1.10;;;0.70;;
6109;SDS011;3085;49.444;11.054;2022-09-09T10:36:00;2.90;;;0.90;;
6109;SDS011;3085;49.444;11.054;2022-09-09T10:38:39;1.90;;;0.83;;
6109;SDS011;3085;49.444;11.054;2022-09-09T10:41:22;2.50;;;1.03;;
6109;SDS011;3085;49.444;11.054;2022-09-09T10:44:05;2.90;;;0.80;;
6109;SDS011;3085;49.444;11.054;2022-09-09T10:46:45;2.27;;;0.93;;
6109;SDS011;3085;49.444;11.054;2022-09-09T10:49:23;1.10;;;0.60;;
6109;SDS011;3085;49.444;11.054;2022-09-09T10:52:01;4.40;;;0.73;;
6109;SDS011;3085;49.444;11.054;2022-09-09T10:54:41;2.17;;;0.80;;
6109;SDS011;3085;49.444;11.054;2022-09-09T10:57:22;1.80;;;0.83;;
6109;SDS011;3085;49.444;11.054;2022-09-09T10:59:57;1.80;;;0.90;;
6109;SDS011;3085;49.444;11.054;2022-09-09T11:02:31;2.70;;;0.90;;
6109;SDS011;3085;49.444;11.054;2022-09-09T11:05:00;1.67;;;0.83;;
6109;SDS011;3085;49.444;11.054;2022-09-09T11:07:32;2.77;;;1.17;;
6109;SDS011;3085;49.444;11.054;2022-09-09T11:10:05;2.10;;;1.13;;
6109;SDS011;3085;49.444;11.054;2022-09-09T11:12:42;2.57;;;1.20;;
6109;SDS011;3085;49.444;11.054;2022-09-09T11:15:14;3.60;;;1.30;;
6109;SDS011;3085;49.444;11.054;2022-09-09T11:17:48;1.87;;;0.93;;
6109;SDS011;3085;49.444;11.054;2022-09-09T11:20:20;1.70;;;0.87;;
6109;SDS011;3085;49.444;11.054;2022-09-09T11:22:48;2.60;;;1.10;;
6109;SDS011;3085;49.444;11.054;2022-09-09T11:25:18;3.30;;;1.10;;
6109;SDS011;3085;49.444;11.054;2022-09-09T11:27:59;1.83;;;0.80;;
6109;SDS011;3085;49.444;11.054;2022-09-09T11:30:51;14.00;;;1.10;;
6109;SDS011;3085;49.444;11.054;2022-09-09T11:33:55;2.40;;;1.00;;
6109;SDS011;3085;49.444;11.054;2022-09-09T11:36:44;1.90;;;1.00;;
6109;SDS011;3085;49.444;11.054;2022-09-09T11:42:20;2.73;;;1.10;;
6109;SDS011;3085;49.444;11.054;2022-09-09T11:44:48;2.63;;;1.00;;
6109;SDS011;3085;49.444;11.054;2022-09-09T11:47:18;5.30;;;1.37;;
6109;SDS011;3085;49.444;11.054;2022-09-09T11:49:49;5.97;;;1.07;;
6109;SDS011;3085;49.444;11.054;2022-09-09T11:52:20;3.67;;;1.07;;
6109;SDS011;3085;49.444;11.054;2022-09-09T11:55:08;5.13;;;1.10;;
6109;SDS011;3085;49.444;11.054;2022-09-09T11:57:37;1.20;;;0.70;;
6109;SDS011;3085;49.444;11.054;2022-09-09T12:00:05;3.23;;;1.00;;
6109;SDS011;3085;49.444;11.054;2022-09-09T12:02:33;1.30;;;0.80;;
6109;SDS011;3085;49.444;11.054;2022-09-09T12:05:04;2.43;;;1.07;;
6109;SDS011;3085;49.444;11.054;2022-09-09T12:07:35;1.70;;;0.70;;
6109;SDS011;3085;49.444;11.054;2022-09-09T12:10:05;4.80;;;0.97;;
6109;SDS011;3085;49.444;11.054;2022-09-09T12:12:48;2.90;;;1.07;;
6109;SDS011;3085;49.444;11.054;2022-09-09T12:15:19;2.13;;;1.00;;
6109;SDS011;3085;49.444;11.054;2022-09-09T12:17:49;1.57;;;0.93;;
6109;SDS011;3085;49.444;11.054;2022-09-09T12:20:20;1.90;;;0.83;;
6109;SDS011;3085;49.444;11.054;2022-09-09T12:22:58;3.53;;;0.90;;
6109;SDS011;3085;49.444;11.054;2022-09-09T12:26:05;1.10;;;0.60;;
6109;SDS011;3085;49.444;11.054;2022-09-09T12:28:45;2.10;;;0.87;;
6109;SDS011;3085;49.444;11.054;2022-09-09T12:31:24;3.57;;;1.10;;
6109;SDS011;3085;49.444;11.054;2022-09-09T12:34:02;1.30;;;0.80;;
6109;SDS011;3085;49.444;11.054;2022-09-09T12:36:38;1.27;;;0.70;;
6109;SDS011;3085;49.444;11.054;2022-09-09T12:39:10;6.43;;;1.20;;
6109;SDS011;3085;49.444;11.054;2022-09-09T12:41:50;2.40;;;0.97;;
6109;SDS011;3085;49.444;11.054;2022-09-09T12:44:23;6.73;;;0.80;;
6109;SDS011;3085;49.444;11.054;2022-09-09T12:46:50;1.67;;;0.83;;
6109;SDS011;3085;49.444;11.054;2022-09-09T12:49:26;2.23;;;0.93;;
6109;SDS011;3085;49.444;11.054;2022-09-09T12:52:00;1.40;;;0.77;;
6109;SDS011;3085;49.444;11.054;2022-09-09T12:54:33;7.07;;;1.00;;
6109;SDS011;3085;49.444;11.054;2022-09-09T12:57:02;2.23;;;0.93;;
6109;SDS011;3085;49.444;11.054;2022-09-09T12:59:35;13.13;;;2.10;;
6109;SDS011;3085;49.444;11.054;2022-09-09T13:02:10;1.80;;;0.80;;
6109;SDS011;3085;49.444;11.054;2022-09-09T13:04:44;2.50;;;0.93;;
6109;SDS011;3085;49.444;11.054;2022-09-09T13:07:28;1.97;;;0.80;;
6109;SDS011;3085;49.444;11.054;2022-09-09T13:09:55;1.57;;;0.90;;
6109;SDS011;3085;49.444;11.054;2022-09-09T13:12:23;1.10;;;0.73;;
6109;SDS011;3085;49.444;11.054;2022-09-09T13:14:50;1.20;;;0.70;;
6109;SDS011;3085;49.444;11.054;2022-09-09T13:17:21;1.90;;;1.00;;
6109;SDS011;3085;49.444;11.054;2022-09-09T13:19:50;1.70;;;0.90;;
6109;SDS011;3085;49.444;11.054;2022-09-09T13:22:20;3.47;;;1.00;;
6109;SDS011;3085;49.444;11.054;2022-09-09T13:25:03;2.70;;;0.80;;
6109;SDS011;3085;49.444;11.054;2022-09-09T13:27:35;1.40;;;0.90;;
6109;SDS011;3085;49.444;11.054;2022-09-09T13:30:20;1.37;;;1.03;;
6109;SDS011;3085;49.444;11.054;2022-09-09T13:32:59;6.83;;;1.07;;
6109;SDS011;3085;49.444;11.054;2022-09-09T13:35:27;3.83;;;0.83;;
6109;SDS011;3085;49.444;11.054;2022-09-09T13:37:54;1.90;;;0.90;;
6109;SDS011;3085;49.444;11.054;2022-09-09T13:40:23;1.87;;;0.80;;
6109;SDS011;3085;49.444;11.054;2022-09-09T13:42:53;1.30;;;0.77;;
6109;SDS011;3085;49.444;11.054;2022-09-09T13:45:24;2.60;;;0.93;;
6109;SDS011;3085;49.444;11.054;2022-09-09T13:47:53;1.20;;;0.70;;
6109;SDS011;3085;49.444;11.054;2022-09-09T13:50:21;1.30;;;0.67;;
6109;SDS011;3085;49.444;11.054;2022-09-09T13:52:49;1.70;;;1.00;;
6109;SDS011;3085;49.444;11.054;2022-09-09T13:55:18;5.47;;;0.83;;
6109;SDS011;3085;49.444;11.054;2022-09-09T13:57:52;1.10;;;0.60;;
6109;SDS011;3085;49.444;11.054;2022-09-09T14:00:20;1.50;;;0.70;;
6109;SDS011;3085;49.444;11.054;2022-09-09T14:02:47;1.20;;;0.63;;
6109;SDS011;3085;49.444;11.054;2022-09-09T14:05:15;3.20;;;1.27;;
6109;SDS011;3085;49.444;11.054;2022-09-09T14:07:42;2.83;;;0.70;;
6109;SDS011;3085;49.444;11.054;2022-09-09T14:10:11;1.10;;;0.80;;
6109;SDS011;3085;49.444;11.054;2022-09-09T14:12:38;2.70;;;0.80;;
6109;SDS011;3085;49.444;11.054;2022-09-09T14:15:09;1.63;;;0.80;;
6109;SDS011;3085;49.444;11.054;2022-09-09T14:17:37;1.70;;;0.70;;
6109;SDS011;3085;49.444;11.054;2022-09-09T14:20:05;2.17;;;0.87;;
6109;SDS011;3085;49.444;11.054;2022-09-09T14:22:34;5.30;;;1.00;;
6109;SDS011;3085;49.444;11.054;2022-09-09T14:25:02;1.87;;;0.87;;
6109;SDS011;3085;49.444;11.054;2022-09-09T14:27:36;3.93;;;0.93;;
6109;SDS011;3085;49.444;11.054;2022-09-09T14:30:05;1.60;;;0.70;;
6109;SDS011;3085;49.444;11.054;2022-09-09T14:32:48;1.20;;;0.60;;
6109;SDS011;3085;49.444;11.054;2022-09-09T14:35:15;1.53;;;0.80;;
6109;SDS011;3085;49.444;11.054;2022-09-09T14:37:43;4.60;;;1.30;;
6109;SDS011;3085;49.444;11.054;2022-09-09T14:40:13;2.90;;;1.07;;
6109;SDS011;3085;49.444;11.054;2022-09-09T14:42:43;1.63;;;1.00;;
6109;SDS011;3085;49.444;11.054;2022-09-09T14:45:12;7.60;;;2.00;;
6109;SDS011;3085;49.444;11.054;2022-09-09T14:47:39;3.10;;;1.23;;
6109;SDS011;3085;49.444;11.054;2022-09-09T14:50:07;1.60;;;0.93;;
6109;SDS011;3085;49.444;11.054;2022-09-09T14:52:34;3.20;;;1.00;;
6109;SDS011;3085;49.444;11.054;2022-09-09T14:55:02;8.33;;;0.87;;
6109;SDS011;3085;49.444;11.054;2022-09-09T14:57:29;1.50;;;0.83;;
6109;SDS011;3085;49.444;11.054;2022-09-09T14:59:57;6.43;;;1.00;;
6109;SDS011;3085;49.444;11.054;2022-09-09T15:02:25;5.90;;;1.20;;
6109;SDS011;3085;49.444;11.054;2022-09-09T15:04:52;2.13;;;1.00;;
6109;SDS011;3085;49.444;11.054;2022-09-09T15:07:22;2.00;;;0.97;;
6109;SDS011;3085;49.444;11.054;2022-09-09T15:09:53;2.73;;;0.80;;
6109;SDS011;3085;49.444;11.054;2022-09-09T15:12:20;2.00;;;0.80;;
6109;SDS011;3085;49.444;11.054;2022-09-09T15:14:47;2.53;;;0.97;;
6109;SDS011;3085;49.444;11.054;2022-09-09T15:17:15;1.70;;;0.70;;
6109;SDS011;3085;49.444;11.054;2022-09-09T15:19:44;2.60;;;1.00;;
6109;SDS011;3085;49.444;11.054;2022-09-09T15:22:11;1.30;;;0.70;;
6109;SDS011;3085;49.444;11.054;2022-09-09T15:24:41;2.70;;;1.00;;
6109;SDS011;3085;49.444;11.054;2022-09-09T15:27:08;1.60;;;0.73;;
6109;SDS011;3085;49.444;11.054;2022-09-09T15:29:35;1.60;;;0.80;;
6109;SDS011;3085;49.444;11.054;2022-09-09T15:32:03;3.60;;;0.90;;
6109;SDS011;3085;49.444;11.054;2022-09-09T15:34:30;1.93;;;1.00;;